Time;durP1;ratioP1;P1;durP2;ratioP2;P2;SDS_P1;SDS_P2;PMS_P1;PMS_P2;Temp;Humidity;BMP_temperature;BMP_pressure;BME280_temperature;BME280_humidity;BME280_pressure;Samples;Min_cycle;Max_cycle;Signal;HPM_P1;HPM_P2
2021/07/15 00:00:50;;;;;;;1.85;0.68;;;;;;;;;;5054219;28;20048;-52
2021/07/15 00:03:17;;;;;;;0.98;0.70;;;;;;;;;;5054014;28;20139;-52
2021/07/15 00:05:43;;;;;;;4.72;0.90;;;;;;;;;;5053994;28;20502;-52
2021/07/15 00:08:09;;;;;;;0.90;0.55;;;;;;;;;;5052812;28;20021;-52
2021/07/15 00:10:36;;;;;;;1.35;0.40;;;;;;;;;;5054114;28;20060;-52
2021/07/15 00:13:02;;;;;;;2.72;0.60;;;;;;;;;;5053896;28;20455;-53
2021/07/15 00:15:29;;;;;;;0.95;0.30;;;;;;;;;;5053754;28;20422;-52
2021/07/15 00:17:55;;;;;;;2.95;0.55;;;;;;;;;;5054094;28;20021;-53
2021/07/15 00:20:21;;;;;;;0.90;0.50;;;;;;;;;;5053678;28;20033;-53
2021/07/15 00:22:46;;;;;;;3.97;0.68;;;;;;;;;;5053941;28;20031;-52
2021/07/15 00:25:13;;;;;;;3.90;0.52;;;;;;;;;;5053724;28;20021;-51
2021/07/15 00:27:39;;;;;;;3.53;0.60;;;;;;;;;;5053780;28;20072;-52
2021/07/15 00:30:05;;;;;;;1.42;0.65;;;;;;;;;;5053520;28;20495;-52
2021/07/15 00:32:30;;;;;;;2.65;0.55;;;;;;;;;;5053366;28;20467;-52
2021/07/15 00:34:56;;;;;;;3.20;0.50;;;;;;;;;;5053805;28;20025;-52
2021/07/15 00:37:21;;;;;;;6.25;0.70;;;;;;;;;;5052822;28;20449;-53
2021/07/15 00:39:47;;;;;;;2.78;0.75;;;;;;;;;;5053331;28;20522;-52
2021/07/15 00:42:12;;;;;;;1.70;0.80;;;;;;;;;;5053693;28;20059;-52
2021/07/15 00:44:39;;;;;;;3.92;1.95;;;;;;;;;;5053225;28;20024;-53
2021/07/15 00:47:04;;;;;;;4.50;0.70;;;;;;;;;;5068653;28;20055;-52
2021/07/15 00:49:29;;;;;;;4.88;1.02;;;;;;;;;;5053095;28;20106;-52
2021/07/15 00:51:55;;;;;;;5.82;0.70;;;;;;;;;;5013244;28;20038;-52
2021/07/15 00:54:20;;;;;;;1.77;0.80;;;;;;;;;;5013560;28;20034;-52
2021/07/15 00:56:45;;;;;;;2.72;0.60;;;;;;;;;;5013351;28;20029;-52
2021/07/15 00:59:11;;;;;;;1.15;0.50;;;;;;;;;;5028443;28;20053;-52
2021/07/15 01:01:37;;;;;;;4.00;0.70;;;;;;;;;;5013260;28;20061;-53
2021/07/15 01:04:02;;;;;;;2.45;0.47;;;;;;;;;;5012065;28;20034;-52
2021/07/15 01:06:27;;;;;;;3.58;0.73;;;;;;;;;;5013459;28;20033;-53
2021/07/15 01:08:53;;;;;;;7.75;0.70;;;;;;;;;;5013287;28;20465;-52
2021/07/15 01:11:27;;;;;;;4.45;1.08;;;;;;;;;;5013112;28;20022;-53
2021/07/15 01:13:59;;;;;;;4.25;1.13;;;;;;;;;;5013002;28;20030;-53
2021/07/15 01:16:28;;;;;;;3.65;1.58;;;;;;;;;;5013010;28;20069;-53
2021/07/15 01:19:11;;;;;;;3.17;0.90;;;;;;;;;;5013159;28;20108;-53
2021/07/15 01:21:45;;;;;;;5.85;1.25;;;;;;;;;;5012845;28;20481;-52
2021/07/15 01:24:30;;;;;;;4.07;0.50;;;;;;;;;;5013101;28;20049;-52
2021/07/15 01:27:02;;;;;;;10.60;0.88;;;;;;;;;;5012916;28;20038;-52
2021/07/15 01:29:30;;;;;;;1.70;1.10;;;;;;;;;;5013127;28;20040;-53
2021/07/15 01:32:00;;;;;;;1.98;0.70;;;;;;;;;;5012962;28;20259;-53
2021/07/15 01:34:26;;;;;;;2.60;0.47;;;;;;;;;;5012847;28;20092;-53
2021/07/15 01:36:53;;;;;;;2.40;0.75;;;;;;;;;;5013000;28;20029;-53
2021/07/15 01:39:22;;;;;;;3.42;0.70;;;;;;;;;;5012739;28;20444;-53
2021/07/15 01:41:48;;;;;;;2.03;0.60;;;;;;;;;;5012499;28;20033;-53
2021/07/15 01:44:17;;;;;;;3.78;0.90;;;;;;;;;;5013065;28;20057;-52
2021/07/15 01:46:43;;;;;;;3.75;0.50;;;;;;;;;;5012615;28;20068;-53
2021/07/15 01:49:09;;;;;;;2.83;0.60;;;;;;;;;;5012705;28;20030;-54
2021/07/15 01:51:35;;;;;;;3.10;0.60;;;;;;;;;;5045223;28;20518;-53
2021/07/15 01:54:01;;;;;;;4.55;1.27;;;;;;;;;;5052257;28;20029;-53
2021/07/15 01:56:26;;;;;;;0.68;0.45;;;;;;;;;;5052187;28;20025;-53
2021/07/15 01:58:53;;;;;;;2.38;0.70;;;;;;;;;;5052400;28;20044;-53
2021/07/15 02:01:19;;;;;;;7.38;0.70;;;;;;;;;;5052427;28;20036;-52
2021/07/15 02:03:47;;;;;;;1.83;0.70;;;;;;;;;;5052004;28;20025;-52
2021/07/15 02:06:13;;;;;;;1.92;0.82;;;;;;;;;;5052442;28;20021;-52
2021/07/15 02:08:39;;;;;;;1.38;0.60;;;;;;;;;;5052128;28;20447;-53
2021/07/15 02:11:06;;;;;;;1.77;0.80;;;;;;;;;;5051967;28;20025;-53
2021/07/15 02:13:32;;;;;;;2.95;0.90;;;;;;;;;;5052085;28;20035;-52
2021/07/15 02:15:58;;;;;;;2.40;1.08;;;;;;;;;;5052339;28;20100;-52
2021/07/15 02:18:24;;;;;;;6.28;1.65;;;;;;;;;;5052157;28;20048;-53
2021/07/15 02:20:50;;;;;;;3.72;1.30;;;;;;;;;;5051899;28;20463;-53
2021/07/15 02:23:16;;;;;;;5.97;0.40;;;;;;;;;;5051950;28;20494;-53
2021/07/15 02:25:41;;;;;;;1.48;0.85;;;;;;;;;;5052106;28;20059;-53
2021/07/15 02:28:08;;;;;;;1.83;0.90;;;;;;;;;;5067465;28;20478;-51
2021/07/15 02:30:33;;;;;;;6.38;1.08;;;;;;;;;;5051974;28;20021;-53
2021/07/15 02:33:01;;;;;;;1.45;0.52;;;;;;;;;;5052211;28;20375;-53
2021/07/15 02:35:28;;;;;;;0.40;0.40;;;;;;;;;;5052187;28;20187;-53
2021/07/15 02:37:54;;;;;;;2.47;0.65;;;;;;;;;;5052103;28;20163;-53
2021/07/15 02:40:20;;;;;;;1.40;0.68;;;;;;;;;;5051944;28;20079;-52
2021/07/15 02:42:45;;;;;;;7.70;1.25;;;;;;;;;;5051922;28;20029;-53
2021/07/15 02:45:13;;;;;;;2.42;0.73;;;;;;;;;;5051764;28;20025;-52
2021/07/15 02:47:39;;;;;;;2.50;0.65;;;;;;;;;;5051673;28;20087;-52
2021/07/15 02:50:05;;;;;;;11.25;2.05;;;;;;;;;;5051428;28;20057;-53
2021/07/15 02:52:31;;;;;;;1.35;0.90;;;;;;;;;;5051651;28;20064;-53
2021/07/15 02:54:56;;;;;;;4.70;1.85;;;;;;;;;;5051659;28;20068;-53
2021/07/15 02:57:33;;;;;;;3.83;1.67;;;;;;;;;;5051689;28;20075;-52
2021/07/15 03:00:14;;;;;;;2.50;1.35;;;;;;;;;;5052344;28;20040;-53
2021/07/15 03:02:46;;;;;;;5.53;1.02;;;;;;;;;;5055225;28;20025;-53
2021/07/15 03:05:16;;;;;;;9.57;1.00;;;;;;;;;;5055101;28;20476;-53
2021/07/15 03:07:51;;;;;;;5.90;1.08;;;;;;;;;;5055354;28;20059;-53
2021/07/15 03:10:17;;;;;;;2.63;1.23;;;;;;;;;;5055092;28;20099;-53
2021/07/15 03:12:43;;;;;;;4.78;1.35;;;;;;;;;;5055273;28;20459;-54
2021/07/15 03:15:09;;;;;;;1.50;1.08;;;;;;;;;;5054982;28;20069;-54
2021/07/15 03:17:38;;;;;;;6.63;1.00;;;;;;;;;;5054895;28;20020;-53
2021/07/15 03:20:27;;;;;;;3.25;0.70;;;;;;;;;;5053608;28;20044;-52
2021/07/15 03:22:54;;;;;;;3.35;0.80;;;;;;;;;;5051798;28;20037;-53
2021/07/15 03:25:20;;;;;;;2.75;0.75;;;;;;;;;;5054895;28;20403;-53
2021/07/15 03:27:47;;;;;;;3.10;1.05;;;;;;;;;;5054931;28;20029;-52
2021/07/15 03:30:13;;;;;;;1.27;0.70;;;;;;;;;;5054784;28;20021;-52
2021/07/15 03:32:39;;;;;;;5.45;0.73;;;;;;;;;;5054653;28;20048;-53
2021/07/15 03:35:05;;;;;;;2.05;0.55;;;;;;;;;;5054675;28;20467;-53
2021/07/15 03:37:31;;;;;;;5.47;0.90;;;;;;;;;;5054839;28;20038;-53
2021/07/15 03:39:57;;;;;;;4.43;0.90;;;;;;;;;;5054664;28;20078;-54
2021/07/15 03:42:22;;;;;;;6.95;0.90;;;;;;;;;;5054522;28;20471;-53
2021/07/15 03:44:49;;;;;;;2.85;1.15;;;;;;;;;;5054347;28;20075;-53
2021/07/15 03:47:15;;;;;;;0.80;0.65;;;;;;;;;;5054468;28;20108;-53
2021/07/15 03:49:44;;;;;;;5.90;0.90;;;;;;;;;;5054056;28;20021;-52
2021/07/15 03:52:12;;;;;;;13.10;1.20;;;;;;;;;;5054590;28;20057;-53
2021/07/15 03:54:39;;;;;;;2.58;0.75;;;;;;;;;;5054253;28;20593;-53
2021/07/15 03:57:05;;;;;;;2.67;1.20;;;;;;;;;;5054416;28;20029;-53
2021/07/15 03:59:31;;;;;;;3.63;0.63;;;;;;;;;;5054151;28;20021;-53
2021/07/15 04:02:01;;;;;;;1.95;0.80;;;;;;;;;;5054062;28;20033;-52
2021/07/15 04:04:28;;;;;;;2.33;0.50;;;;;;;;;;5054018;28;20521;-53
2021/07/15 04:06:54;;;;;;;2.70;1.38;;;;;;;;;;5054065;28;20036;-53
2021/07/15 04:09:20;;;;;;;5.60;1.02;;;;;;;;;;5053965;28;20017;-52
2021/07/15 04:11:46;;;;;;;1.63;0.70;;;;;;;;;;5053805;28;20036;-53
2021/07/15 04:14:15;;;;;;;1.38;0.70;;;;;;;;;;5053943;28;20052;-52
2021/07/15 04:17:03;;;;;;;6.80;0.88;;;;;;;;;;5053852;28;20025;-53
2021/07/15 04:19:29;;;;;;;2.15;0.70;;;;;;;;;;5050621;28;20041;-53
2021/07/15 04:21:55;;;;;;;4.95;0.55;;;;;;;;;;5053646;28;20498;-53
2021/07/15 04:24:22;;;;;;;1.25;0.77;;;;;;;;;;5053963;28;20025;-53
2021/07/15 04:26:48;;;;;;;2.28;0.70;;;;;;;;;;5053841;28;20024;-53
2021/07/15 04:29:14;;;;;;;1.65;0.50;;;;;;;;;;5053888;28;20464;-52
2021/07/15 04:31:47;;;;;;;1.38;0.93;;;;;;;;;;5053483;28;20020;-53
2021/07/15 04:34:13;;;;;;;1.85;0.60;;;;;;;;;;5053587;28;20017;-53
2021/07/15 04:36:39;;;;;;;4.38;0.80;;;;;;;;;;5053689;28;20024;-53
2021/07/15 04:39:05;;;;;;;2.65;0.75;;;;;;;;;;5053329;28;20058;-53
2021/07/15 04:41:30;;;;;;;1.40;0.50;;;;;;;;;;5053615;28;20029;-53
2021/07/15 04:43:57;;;;;;;1.67;0.80;;;;;;;;;;5053618;28;20036;-53
2021/07/15 04:46:23;;;;;;;6.78;1.50;;;;;;;;;;5053573;28;20020;-53
2021/07/15 04:48:48;;;;;;;3.42;0.95;;;;;;;;;;5053330;28;20096;-53
2021/07/15 04:51:16;;;;;;;1.83;0.68;;;;;;;;;;5053150;28;20060;-53
2021/07/15 04:53:42;;;;;;;2.90;0.95;;;;;;;;;;5052999;28;20029;-53
2021/07/15 04:56:07;;;;;;;3.42;1.10;;;;;;;;;;5051956;28;20017;-53
2021/07/15 04:58:33;;;;;;;6.63;1.48;;;;;;;;;;5053327;28;20025;-53
2021/07/15 05:00:59;;;;;;;1.42;0.90;;;;;;;;;;5053117;28;20589;-53
2021/07/15 05:03:30;;;;;;;3.13;0.85;;;;;;;;;;5053289;28;20025;-53
2021/07/15 05:05:56;;;;;;;5.53;0.77;;;;;;;;;;5052811;28;20039;-53
2021/07/15 05:08:21;;;;;;;2.85;0.80;;;;;;;;;;5052886;28;20017;-52
2021/07/15 05:10:47;;;;;;;1.88;0.70;;;;;;;;;;5052834;28;20040;-53
2021/07/15 05:13:12;;;;;;;1.20;0.75;;;;;;;;;;5052887;28;20044;-53
2021/07/15 05:15:38;;;;;;;3.72;0.88;;;;;;;;;;5052622;28;20398;-53
2021/07/15 05:18:03;;;;;;;1.15;0.77;;;;;;;;;;5052782;28;20151;-53
2021/07/15 05:20:29;;;;;;;1.77;0.57;;;;;;;;;;5052605;28;20037;-53
2021/07/15 05:22:54;;;;;;;2.30;0.60;;;;;;;;;;5052132;28;20013;-53
2021/07/15 05:25:19;;;;;;;4.28;1.02;;;;;;;;;;5052661;28;20029;-53
2021/07/15 05:27:45;;;;;;;4.00;0.60;;;;;;;;;;5052374;28;20017;-54
2021/07/15 05:30:11;;;;;;;3.75;0.70;;;;;;;;;;5052769;28;20029;-53
2021/07/15 05:32:36;;;;;;;2.63;0.57;;;;;;;;;;5052380;28;20429;-53
2021/07/15 05:35:02;;;;;;;4.55;0.68;;;;;;;;;;5052533;28;20415;-53
2021/07/15 05:37:27;;;;;;;8.10;1.33;;;;;;;;;;5052453;28;20095;-52
2021/07/15 05:39:52;;;;;;;0.52;0.47;;;;;;;;;;5052451;28;20074;-54
2021/07/15 05:42:18;;;;;;;1.05;0.60;;;;;;;;;;5052385;28;20493;-52
2021/07/15 05:44:43;;;;;;;1.88;0.63;;;;;;;;;;5050837;28;20032;-52
2021/07/15 05:47:09;;;;;;;7.25;0.60;;;;;;;;;;5052682;28;20024;-53
2021/07/15 05:49:35;;;;;;;2.90;0.70;;;;;;;;;;5052138;28;20486;-53
2021/07/15 05:52:01;;;;;;;2.95;0.50;;;;;;;;;;5052129;28;20377;-53
2021/07/15 05:54:26;;;;;;;1.17;0.65;;;;;;;;;;5052359;28;20082;-53
2021/07/15 05:56:51;;;;;;;3.03;1.05;;;;;;;;;;5052248;28;20033;-53
2021/07/15 05:59:17;;;;;;;2.17;0.75;;;;;;;;;;5050890;28;20049;-54
2021/07/15 06:01:42;;;;;;;1.23;0.55;;;;;;;;;;5052122;28;20035;-53
2021/07/15 06:04:07;;;;;;;1.50;0.77;;;;;;;;;;5052136;28;20087;-54
2021/07/15 06:06:33;;;;;;;4.18;0.85;;;;;;;;;;5052344;28;20360;-53
2021/07/15 06:08:58;;;;;;;3.17;0.63;;;;;;;;;;5052102;28;20467;-53
2021/07/15 06:11:23;;;;;;;1.00;0.57;;;;;;;;;;5052143;28;20034;-53
2021/07/15 06:13:49;;;;;;;1.48;0.82;;;;;;;;;;5052360;28;20032;-52
2021/07/15 06:16:14;;;;;;;3.22;0.85;;;;;;;;;;5052324;28;20469;-53
2021/07/15 06:18:39;;;;;;;2.05;0.75;;;;;;;;;;5052254;28;20028;-53
2021/07/15 06:21:05;;;;;;;3.72;0.75;;;;;;;;;;5052230;28;20460;-53
2021/07/15 06:23:34;;;;;;;3.47;0.73;;;;;;;;;;5052224;28;20530;-52
2021/07/15 06:26:00;;;;;;;0.73;0.60;;;;;;;;;;5052224;28;20023;-53
2021/07/15 06:28:26;;;;;;;0.90;0.63;;;;;;;;;;5052156;28;20021;-53
2021/07/15 06:30:52;;;;;;;2.33;0.70;;;;;;;;;;5051853;28;20597;-53
2021/07/15 06:33:17;;;;;;;2.95;0.80;;;;;;;;;;5050602;28;20029;-53
2021/07/15 06:35:45;;;;;;;2.63;0.52;;;;;;;;;;5053648;28;20143;-52
2021/07/15 06:38:11;;;;;;;0.93;0.68;;;;;;;;;;5055753;28;20039;-53
2021/07/15 06:40:36;;;;;;;2.22;0.40;;;;;;;;;;5055399;28;20104;-54
2021/07/15 06:43:02;;;;;;;1.02;0.50;;;;;;;;;;5054425;28;20075;-53
2021/07/15 06:45:27;;;;;;;0.68;0.52;;;;;;;;;;5055712;28;20423;-53
2021/07/15 06:47:53;;;;;;;3.60;0.52;;;;;;;;;;5055400;28;20080;-53
2021/07/15 06:50:18;;;;;;;5.00;0.80;;;;;;;;;;5055344;28;20053;-53
2021/07/15 06:52:44;;;;;;;0.93;0.65;;;;;;;;;;5055334;28;20033;-52
2021/07/15 06:55:10;;;;;;;0.90;0.80;;;;;;;;;;5055435;28;20427;-52
2021/07/15 06:57:36;;;;;;;0.65;0.47;;;;;;;;;;5055352;28;20040;-52
2021/07/15 07:00:07;;;;;;;2.17;0.73;;;;;;;;;;5055208;28;20041;-53
2021/07/15 07:02:36;;;;;;;3.05;0.88;;;;;;;;;;5054239;28;20029;-53
2021/07/15 07:05:01;;;;;;;2.47;0.73;;;;;;;;;;5055467;28;20426;-53
2021/07/15 07:07:27;;;;;;;1.65;0.68;;;;;;;;;;5055285;28;20040;-53
2021/07/15 07:09:52;;;;;;;4.40;0.50;;;;;;;;;;5054987;28;20029;-53
2021/07/15 07:12:19;;;;;;;4.55;0.50;;;;;;;;;;5055029;28;20037;-53
2021/07/15 07:14:44;;;;;;;3.72;0.65;;;;;;;;;;5055380;28;20368;-52
2021/07/15 07:17:10;;;;;;;2.13;0.60;;;;;;;;;;5055241;28;20033;-55
2021/07/15 07:19:35;;;;;;;6.20;0.60;;;;;;;;;;5054786;28;20096;-53
2021/07/15 07:22:00;;;;;;;1.92;1.00;;;;;;;;;;5055192;28;20175;-53
2021/07/15 07:24:26;;;;;;;1.25;0.70;;;;;;;;;;5054795;28;20463;-53
2021/07/15 07:26:51;;;;;;;0.47;0.47;;;;;;;;;;5055080;28;20033;-53
2021/07/15 07:29:16;;;;;;;9.82;1.10;;;;;;;;;;5054712;28;20017;-54
2021/07/15 07:31:42;;;;;;;3.70;0.70;;;;;;;;;;5054523;28;20040;-53
2021/07/15 07:34:07;;;;;;;1.92;0.75;;;;;;;;;;5055043;28;20048;-53
2021/07/15 07:36:33;;;;;;;1.02;0.60;;;;;;;;;;5054593;28;20395;-51
2021/07/15 07:38:58;;;;;;;1.45;0.68;;;;;;;;;;5054807;28;20013;-52
2021/07/15 07:41:23;;;;;;;3.80;0.70;;;;;;;;;;5054509;28;20033;-53
2021/07/15 07:43:49;;;;;;;4.10;0.60;;;;;;;;;;5069851;28;20013;-53
2021/07/15 07:46:14;;;;;;;3.95;0.90;;;;;;;;;;5054143;28;20025;-53
2021/07/15 07:48:39;;;;;;;2.58;1.17;;;;;;;;;;5054644;28;20414;-53
2021/07/15 07:51:05;;;;;;;3.45;0.88;;;;;;;;;;5054231;28;20061;-52
2021/07/15 07:53:30;;;;;;;1.55;0.80;;;;;;;;;;5054268;28;20024;-53
2021/07/15 07:55:56;;;;;;;9.57;1.02;;;;;;;;;;5054212;28;20052;-53
2021/07/15 07:58:21;;;;;;;2.88;0.80;;;;;;;;;;5054263;28;20028;-53
2021/07/15 08:00:47;;;;;;;5.05;0.70;;;;;;;;;;5054064;28;20041;-53
2021/07/15 08:03:13;;;;;;;3.03;0.50;;;;;;;;;;5054399;28;20020;-52
2021/07/15 08:05:39;;;;;;;1.88;0.80;;;;;;;;;;5053938;28;20510;-53
2021/07/15 08:08:05;;;;;;;4.90;0.70;;;;;;;;;;5054280;28;20363;-53
2021/07/15 08:10:30;;;;;;;4.80;0.70;;;;;;;;;;5054073;28;20082;-54
2021/07/15 08:12:55;;;;;;;2.33;0.93;;;;;;;;;;5053872;28;20021;-53
2021/07/15 08:15:21;;;;;;;4.85;1.10;;;;;;;;;;5054169;28;20151;-53
2021/07/15 08:17:46;;;;;;;3.22;0.60;;;;;;;;;;5054085;28;20021;-53
2021/07/15 08:20:12;;;;;;;3.22;1.05;;;;;;;;;;5053965;28;20033;-53
2021/07/15 08:22:38;;;;;;;4.90;2.30;;;;;;;;;;5053619;28;20476;-53
2021/07/15 08:25:04;;;;;;;1.63;0.85;;;;;;;;;;5053802;28;20471;-53
2021/07/15 08:27:29;;;;;;;5.40;0.60;;;;;;;;;;5053901;28;20035;-53
2021/07/15 08:29:54;;;;;;;1.13;0.43;;;;;;;;;;5052256;28;20438;-53
2021/07/15 08:32:21;;;;;;;1.58;0.82;;;;;;;;;;5053590;28;20107;-53
2021/07/15 08:34:46;;;;;;;4.35;0.80;;;;;;;;;;5053353;28;20468;-53
2021/07/15 08:37:11;;;;;;;3.00;0.88;;;;;;;;;;5053596;28;20032;-53
2021/07/15 08:39:37;;;;;;;4.47;0.73;;;;;;;;;;5053324;28;20028;-53
2021/07/15 08:42:02;;;;;;;2.65;0.45;;;;;;;;;;5053258;28;20029;-53
2021/07/15 08:44:28;;;;;;;3.28;0.70;;;;;;;;;;5053423;28;20055;-53
2021/07/15 08:46:54;;;;;;;4.03;0.82;;;;;;;;;;5053505;28;20248;-53
2021/07/15 08:49:20;;;;;;;2.75;0.68;;;;;;;;;;5053440;28;20136;-53
2021/07/15 08:51:46;;;;;;;1.30;0.63;;;;;;;;;;5053016;28;20056;-53
2021/07/15 08:54:16;;;;;;;2.50;0.80;;;;;;;;;;5053160;28;20085;-53
2021/07/15 08:56:44;;;;;;;1.65;0.60;;;;;;;;;;5052984;28;20048;-53
2021/07/15 08:59:13;;;;;;;1.85;0.70;;;;;;;;;;5051085;28;20021;-53
2021/07/15 09:01:42;;;;;;;5.15;0.70;;;;;;;;;;5052963;28;20407;-53
2021/07/15 09:04:08;;;;;;;3.08;0.65;;;;;;;;;;5052850;28;20021;-52
2021/07/15 09:06:33;;;;;;;0.52;0.50;;;;;;;;;;5053050;28;20025;-53
2021/07/15 09:08:58;;;;;;;2.08;0.70;;;;;;;;;;5053071;28;20460;-53
2021/07/15 09:11:24;;;;;;;0.77;0.60;;;;;;;;;;5052852;28;20110;-53
2021/07/15 09:13:49;;;;;;;3.95;0.70;;;;;;;;;;5052826;28;20013;-53
2021/07/15 09:16:15;;;;;;;0.73;0.35;;;;;;;;;;5052682;28;20495;-53
2021/07/15 09:18:54;;;;;;;4.30;0.80;;;;;;;;;;5052676;28;20062;-53
2021/07/15 09:21:20;;;;;;;0.88;0.50;;;;;;;;;;5052596;28;20040;-53
2021/07/15 09:23:45;;;;;;;0.68;0.40;;;;;;;;;;5052535;28;20021;-54
2021/07/15 09:26:11;;;;;;;1.95;0.70;;;;;;;;;;5052949;28;20041;-53
2021/07/15 09:28:36;;;;;;;3.33;0.70;;;;;;;;;;5052396;28;20021;-52
2021/07/15 09:31:15;;;;;;;3.92;0.93;;;;;;;;;;5052506;28;20060;-53
2021/07/15 09:33:41;;;;;;;1.73;0.57;;;;;;;;;;5052459;28;20021;-53
2021/07/15 09:36:13;;;;;;;0.45;0.35;;;;;;;;;;5052573;28;20043;-53
2021/07/15 09:38:39;;;;;;;0.40;0.40;;;;;;;;;;5052503;28;20021;-53
2021/07/15 09:41:04;;;;;;;1.92;0.40;;;;;;;;;;5052623;28;20414;-53
2021/07/15 09:43:37;;;;;;;1.10;0.60;;;;;;;;;;5052391;28;20032;-54
2021/07/15 09:46:12;;;;;;;0.93;0.30;;;;;;;;;;5052289;28;20037;-53
2021/07/15 09:48:38;;;;;;;0.73;0.50;;;;;;;;;;5052181;28;20029;-54
2021/07/15 09:51:07;;;;;;;1.08;0.50;;;;;;;;;;5052207;28;20099;-54
2021/07/15 09:53:35;;;;;;;0.70;0.43;;;;;;;;;;5052503;28;20495;-54
2021/07/15 09:56:05;;;;;;;1.50;0.80;;;;;;;;;;5052496;28;20053;-54
2021/07/15 09:58:31;;;;;;;5.60;0.85;;;;;;;;;;5052253;28;20037;-54
2021/07/15 10:01:04;;;;;;;0.30;0.20;;;;;;;;;;5052176;28;20087;-54
2021/07/15 10:03:29;;;;;;;;;;;;;;;;;;5052708;28;20376;-53
2021/07/15 10:05:55;;;;;;;0.50;0.50;;;;;;;;;;5052084;28;19909;-53
2021/07/15 10:08:25;;;;;;;1.58;0.50;;;;;;;;;;5052269;28;20025;-53
2021/07/15 10:10:51;;;;;;;1.05;0.70;;;;;;;;;;5056055;28;20033;-54
2021/07/15 10:13:17;;;;;;;7.38;0.90;;;;;;;;;;5056207;28;20024;-53
2021/07/15 10:15:43;;;;;;;0.98;0.40;;;;;;;;;;5056378;28;20039;-53
2021/07/15 10:18:08;;;;;;;2.45;0.63;;;;;;;;;;5056046;28;20029;-53
2021/07/15 10:20:34;;;;;;;3.33;0.45;;;;;;;;;;5055942;28;20436;-53
2021/07/15 10:22:59;;;;;;;4.35;0.70;;;;;;;;;;5055965;28;20028;-53
2021/07/15 10:25:25;;;;;;;1.23;0.50;;;;;;;;;;5055989;28;20029;-53
2021/07/15 10:27:51;;;;;;;1.00;0.50;;;;;;;;;;5056156;28;20185;-53
2021/07/15 10:30:17;;;;;;;1.45;0.30;;;;;;;;;;5056060;28;20029;-53
2021/07/15 10:32:43;;;;;;;4.65;0.68;;;;;;;;;;5054463;28;20112;-53
2021/07/15 10:35:09;;;;;;;2.03;0.70;;;;;;;;;;5056126;28;20025;-52
2021/07/15 10:37:45;;;;;;;4.75;0.95;;;;;;;;;;5056019;28;20454;-53
2021/07/15 10:40:12;;;;;;;1.60;0.85;;;;;;;;;;5055962;28;20055;-53
2021/07/15 10:42:38;;;;;;;1.17;0.50;;;;;;;;;;5055856;28;20048;-54
2021/07/15 10:45:04;;;;;;;3.58;0.80;;;;;;;;;;5055618;28;20430;-53
2021/07/15 10:47:30;;;;;;;1.45;0.40;;;;;;;;;;5055681;28;20542;-53
2021/07/15 10:49:55;;;;;;;2.95;0.50;;;;;;;;;;5055146;28;20086;-53
2021/07/15 10:52:22;;;;;;;0.63;0.50;;;;;;;;;;5055581;28;20029;-53
2021/07/15 10:54:48;;;;;;;4.25;0.93;;;;;;;;;;5055662;28;20033;-55
2021/07/15 10:57:18;;;;;;;3.00;0.40;;;;;;;;;;5055673;28;20033;-52
2021/07/15 10:59:43;;;;;;;2.83;0.60;;;;;;;;;;5055590;28;20057;-53
2021/07/15 11:02:25;;;;;;;2.05;0.52;;;;;;;;;;5055514;28;20110;-53
2021/07/15 11:04:51;;;;;;;3.17;0.60;;;;;;;;;;5055166;28;20390;-54
2021/07/15 11:07:28;;;;;;;3.15;0.52;;;;;;;;;;5055210;28;20475;-53
2021/07/15 11:10:12;;;;;;;3.95;0.60;;;;;;;;;;5055337;28;20029;-52
2021/07/15 11:12:38;;;;;;;2.00;0.55;;;;;;;;;;5055088;28;20025;-53
2021/07/15 11:15:05;;;;;;;2.30;0.70;;;;;;;;;;5055068;28;20375;-53
2021/07/15 11:17:32;;;;;;;1.70;0.70;;;;;;;;;;5055005;28;20021;-52
2021/07/15 11:19:57;;;;;;;2.05;0.50;;;;;;;;;;5053577;28;20021;-53
2021/07/15 11:22:33;;;;;;;0.68;0.57;;;;;;;;;;5054170;28;20032;-53
2021/07/15 11:25:05;;;;;;;1.88;1.15;;;;;;;;;;5054818;28;20379;-53
2021/07/15 11:27:32;;;;;;;2.38;0.73;;;;;;;;;;5054858;28;20025;-53
2021/07/15 11:29:57;;;;;;;0.52;0.43;;;;;;;;;;5054662;28;20036;-53
2021/07/15 11:32:26;;;;;;;1.50;0.80;;;;;;;;;;5054791;28;20033;-53
2021/07/15 11:34:54;;;;;;;3.42;0.75;;;;;;;;;;5054549;28;20020;-51
2021/07/15 11:37:25;;;;;;;5.15;0.80;;;;;;;;;;5055014;28;20029;-53
2021/07/15 11:39:55;;;;;;;3.25;0.75;;;;;;;;;;5054676;28;20383;-53
2021/07/15 11:42:21;;;;;;;1.45;0.73;;;;;;;;;;5054238;28;20033;-53
2021/07/15 11:44:59;;;;;;;3.08;0.65;;;;;;;;;;5054718;28;20052;-53
2021/07/15 11:47:43;;;;;;;4.53;0.73;;;;;;;;;;5054457;28;20090;-54
2021/07/15 11:50:27;;;;;;;4.60;0.60;;;;;;;;;;5054193;28;20411;-53
2021/07/15 11:53:11;;;;;;;0.73;0.60;;;;;;;;;;5054476;28;20033;-53
2021/07/15 11:55:37;;;;;;;5.00;0.57;;;;;;;;;;5054356;28;20380;-53
2021/07/15 11:58:02;;;;;;;3.25;0.70;;;;;;;;;;5054187;28;20028;-54
2021/07/15 12:00:28;;;;;;;0.50;0.40;;;;;;;;;;5054205;28;20045;-53
2021/07/15 12:02:57;;;;;;;2.30;0.55;;;;;;;;;;5054041;28;20020;-53
2021/07/15 12:05:28;;;;;;;4.20;1.27;;;;;;;;;;5054702;28;20438;-53
2021/07/15 12:08:13;;;;;;;1.52;0.40;;;;;;;;;;5054269;28;20379;-54
2021/07/15 12:10:42;;;;;;;3.50;0.75;;;;;;;;;;5053978;28;20488;-53
2021/07/15 12:13:09;;;;;;;11.07;0.88;;;;;;;;;;5052837;28;20013;-53
2021/07/15 12:15:35;;;;;;;0.98;0.57;;;;;;;;;;5053916;28;20037;-53
2021/07/15 12:18:01;;;;;;;1.00;0.70;;;;;;;;;;5054059;28;20069;-53
2021/07/15 12:20:39;;;;;;;3.72;0.65;;;;;;;;;;5052492;28;20120;-53
2021/07/15 12:23:05;;;;;;;2.03;0.70;;;;;;;;;;5053737;28;20033;-53
2021/07/15 12:25:32;;;;;;;1.88;0.52;;;;;;;;;;5052460;28;20019;-53
2021/07/15 12:27:58;;;;;;;0.95;0.73;;;;;;;;;;5053865;28;20083;-52
2021/07/15 12:30:37;;;;;;;2.42;0.55;;;;;;;;;;5053625;28;20021;-53
2021/07/15 12:33:02;;;;;;;4.80;0.75;;;;;;;;;;5052746;28;20039;-53
2021/07/15 12:35:31;;;;;;;2.15;0.70;;;;;;;;;;5053596;28;20024;-52
2021/07/15 12:37:57;;;;;;;1.13;0.60;;;;;;;;;;5053625;28;20033;-53
2021/07/15 12:40:26;;;;;;;1.20;0.88;;;;;;;;;;5053717;28;20025;-52
2021/07/15 12:42:52;;;;;;;3.75;0.45;;;;;;;;;;5053321;28;20029;-52
2021/07/15 12:45:18;;;;;;;5.07;1.02;;;;;;;;;;5053746;28;20115;-52
2021/07/15 12:48:01;;;;;;;2.08;0.60;;;;;;;;;;5053190;28;20075;-52
2021/07/15 12:50:27;;;;;;;1.35;0.65;;;;;;;;;;5053273;28;20041;-51
2021/07/15 12:53:07;;;;;;;2.17;0.75;;;;;;;;;;5053132;28;20033;-52
2021/07/15 12:55:33;;;;;;;1.08;0.60;;;;;;;;;;5052088;28;20515;-52
2021/07/15 12:57:59;;;;;;;1.42;0.68;;;;;;;;;;5053207;28;20109;-52
2021/07/15 13:00:24;;;;;;;8.02;1.10;;;;;;;;;;5053319;28;20040;-51
2021/07/15 13:02:50;;;;;;;1.25;0.63;;;;;;;;;;5052945;28;20430;-53
2021/07/15 13:05:19;;;;;;;1.60;0.60;;;;;;;;;;5052920;28;20029;-52
2021/07/15 13:07:45;;;;;;;2.45;1.10;;;;;;;;;;5052895;28;20356;-52
2021/07/15 13:14:13;;;;;;;1.48;0.60;;;;;;;;;;5052834;28;20036;-52
2021/07/15 13:15:54;;;;;;;0.95;0.70;;;;;;;;;;5052779;28;20021;-52
2021/07/15 13:18:23;;;;;;;0.80;0.70;;;;;;;;;;5052635;28;20488;-53
2021/07/15 13:20:48;;;;;;;8.15;1.58;;;;;;;;;;5052571;28;20072;-52
2021/07/15 13:23:14;;;;;;;1.85;0.82;;;;;;;;;;5052745;28;20045;-52
2021/07/15 13:25:43;;;;;;;1.63;0.85;;;;;;;;;;5051320;28;20040;-52
2021/07/15 13:28:09;;;;;;;1.42;0.60;;;;;;;;;;5052664;28;20021;-53
2021/07/15 13:30:37;;;;;;;3.10;0.50;;;;;;;;;;5052483;28;20033;-51
2021/07/15 13:33:24;;;;;;;1.30;0.60;;;;;;;;;;5052444;28;20024;-54
2021/07/15 13:35:51;;;;;;;0.50;0.50;;;;;;;;;;5052449;28;20021;-53
2021/07/15 13:38:17;;;;;;;0.80;0.47;;;;;;;;;;5052821;28;20029;-52
2021/07/15 13:40:44;;;;;;;1.80;0.70;;;;;;;;;;5052223;28;20426;-53
2021/07/15 13:43:10;;;;;;;1.70;0.70;;;;;;;;;;5052730;28;20435;-53
2021/07/15 13:45:40;;;;;;;0.90;0.80;;;;;;;;;;5052119;28;20057;-54
2021/07/15 13:48:19;;;;;;;2.15;0.73;;;;;;;;;;5052507;28;20364;-53
2021/07/15 13:50:45;;;;;;;1.77;0.90;;;;;;;;;;5052123;28;20048;-53
2021/07/15 13:53:12;;;;;;;1.23;0.52;;;;;;;;;;5052284;28;20079;-51
2021/07/15 13:55:39;;;;;;;4.60;0.93;;;;;;;;;;5052244;28;20032;-52
2021/07/15 13:58:04;;;;;;;1.27;0.73;;;;;;;;;;5052441;28;20468;-53
2021/07/15 14:00:31;;;;;;;0.75;0.75;;;;;;;;;;5052534;28;20110;-53
2021/07/15 14:03:00;;;;;;;1.70;0.63;;;;;;;;;;5052288;28;20021;-53
2021/07/15 14:05:28;;;;;;;1.50;0.77;;;;;;;;;;5052481;28;20124;-53
2021/07/15 14:07:55;;;;;;;3.25;0.60;;;;;;;;;;5052102;28;20029;-52
2021/07/15 14:10:21;;;;;;;4.10;0.82;;;;;;;;;;5052052;28;20033;-53
2021/07/15 14:12:46;;;;;;;2.90;0.73;;;;;;;;;;5052074;28;20025;-53
2021/07/15 14:15:22;;;;;;;1.75;0.70;;;;;;;;;;5052056;28;20098;-52
2021/07/15 14:17:57;;;;;;;1.65;0.90;;;;;;;;;;5052109;28;20028;-53
2021/07/15 14:20:22;;;;;;;5.82;0.70;;;;;;;;;;5052294;28;20036;-53
2021/07/15 14:22:48;;;;;;;1.02;0.75;;;;;;;;;;5051901;28;20032;-53
2021/07/15 14:25:13;;;;;;;1.20;0.88;;;;;;;;;;5052017;28;20025;-53
2021/07/15 14:27:38;;;;;;;1.10;0.60;;;;;;;;;;5052285;28;20023;-52
2021/07/15 14:30:04;;;;;;;4.35;0.70;;;;;;;;;;5052037;28;20080;-52
2021/07/15 14:32:29;;;;;;;3.08;0.60;;;;;;;;;;5051889;28;20425;-52
2021/07/15 14:34:55;;;;;;;2.58;0.70;;;;;;;;;;5051891;28;20071;-53
2021/07/15 14:37:20;;;;;;;1.95;0.68;;;;;;;;;;5050710;28;20037;-52
2021/07/15 14:39:46;;;;;;;2.33;0.77;;;;;;;;;;5051788;28;20090;-52
2021/07/15 14:42:11;;;;;;;4.32;0.85;;;;;;;;;;5051832;28;20060;-53
2021/07/15 14:44:36;;;;;;;3.30;0.75;;;;;;;;;;5051826;28;20104;-53
2021/07/15 14:47:02;;;;;;;1.73;0.75;;;;;;;;;;5052042;28;20024;-53